Stanmore, United Kingdom

7:25 AM BST on August 29, 2015 (GMT +0100)
Stanmore | | Change Station
CLOSE
Current Station
Personal Weather Station
Location: London, ENGLAND
Elevation: 318 ft
Nearby Weather Stations

Elev 318 ft 51.61 °N, 0.33 °W | Updated 3 days ago

Partly Cloudy
Partly Cloudy
59 °F
Feels Like 59 °F
N
5
Wind Variable Wind from SSW
Gusts mph

Today
High -- | Low -- °F
--% Chance of Precip.
Yesterday
High -- | Low -- °F
Precip. -- in
6:08 AM 7:55 PM
Full, 100% visible
Pressure 30.15 in
Visibility 6.2 miles
Clouds Few 4900 ft
Dew Point 55 °F
Humidity 86%
Rainfall in
Snow Depth Not available.
UV 0 out of 12
Pollen Not available.
Air Quality Not available.
Flu Activity Not available.
METAR EGLL 290620Z 22006KT 180V250 9999 FEW049 15/13 Q1021 NOSIG
Pressure 30.15 in
Visibility 6.2 miles
Clouds Few 4900 ft
Dew Point 55 °F
Humidity 86%
Rainfall in
Snow Depth Not available.
UV 0 out of 12
Pollen Not available.
Air Quality Not available.
Flu Activity Not available.
METAR EGLL 290620Z 22006KT 180V250 9999 FEW049 15/13 Q1021 NOSIG

10-Day Weather Forecast

×

Almanac

Astronomy

Aug. 29, 2015 Rise Set
Actual Time
Civil Twilight
Nautical Twilight
Astronomical Twilight
Moon
Length of Visible Light
Length of Day
Tomorrow will be .
, % of the Moon is Illuminated

Today's Extremes

Country Highs Country Lows

Community

WunderPhotos

Upload Photos

1,850,622 photos uploaded!

WunderBlogs® & News

Nearby

Air Quality

  Air Quality AQ Index Pollutant
Not available.

Snow Depth

Station Depth Elevation

Earthquake Activity

City Distance Mag. Time & Date
Minimum magnitude displayed is 2.5.

Coastal Water Temperatures

Place Temperature

Stations

Nearby Weather Stations

Station Location Temp. Windchill Dew Point Humidity Wind Precip. Elev Updated Type